createdAt,value
2019-01-11T00:01:25.179Z,96791.40
2019-01-11T00:03:52.340Z,96791.50
2019-01-11T00:06:19.384Z,96789.19
2019-01-11T00:08:46.440Z,96791.64
2019-01-11T00:11:13.478Z,96786.31
2019-01-11T00:13:40.532Z,96790.27
2019-01-11T00:16:07.573Z,96793.44
2019-01-11T00:18:34.602Z,96791.97
2019-01-11T00:21:01.638Z,96800.70
2019-01-11T00:23:28.832Z,96797.24
2019-01-11T00:25:55.858Z,96801.00
2019-01-11T00:28:22.887Z,96801.64
2019-01-11T00:30:49.907Z,96797.83
2019-01-11T00:33:16.948Z,96799.98
2019-01-11T00:35:43.991Z,96797.34
2019-01-11T00:38:11.013Z,96798.32
2019-01-11T00:40:38.074Z,96803.44
2019-01-11T00:43:05.115Z,96803.44
2019-01-11T00:45:32.162Z,96796.86
2019-01-11T00:47:59.199Z,96798.22
2019-01-11T00:50:26.246Z,96804.47
2019-01-11T00:52:53.276Z,96805.93
2019-01-11T00:55:20.300Z,96807.25
2019-01-11T00:57:47.328Z,96809.39
2019-01-11T01:00:16.858Z,96807.88
2019-01-11T01:02:43.916Z,96805.88
2019-01-11T01:05:11.046Z,96817.73
2019-01-11T01:07:38.099Z,96814.61
2019-01-11T01:10:05.368Z,96813.44
2019-01-11T01:12:32.385Z,96815.88
2019-01-11T01:14:59.412Z,96819.48
2019-01-11T01:17:26.542Z,96830.03
2019-01-11T01:19:53.584Z,96823.59
2019-01-11T01:22:20.625Z,96814.86
2019-01-11T01:24:47.651Z,96823.59
2019-01-11T01:27:14.674Z,96823.25
2019-01-11T01:29:41.701Z,96828.52
2019-01-11T01:32:08.722Z,96830.31
2019-01-11T01:34:35.770Z,96826.69
2019-01-11T01:37:03.012Z,96835.23
2019-01-11T01:39:30.081Z,96838.83
2019-01-11T01:41:57.122Z,96838.00
2019-01-11T01:44:24.180Z,96827.41
2019-01-11T01:46:51.199Z,96829.56
2019-01-11T01:49:18.243Z,96836.78
2019-01-11T01:51:45.285Z,96842.33
2019-01-11T01:54:12.911Z,96840.67
2019-01-11T01:56:39.946Z,96837.06
2019-01-11T01:59:06.971Z,96844.48
2019-01-11T02:01:34.007Z,96842.97
2019-01-11T02:04:01.043Z,96851.20
2019-01-11T02:06:28.086Z,96847.11
2019-01-11T02:08:55.102Z,96853.02
2019-01-11T02:11:22.149Z,96861.54
2019-01-11T02:13:49.171Z,96856.77
2019-01-11T02:16:16.207Z,96866.81
2019-01-11T02:18:43.259Z,96865.81
2019-01-11T02:21:10.285Z,96860.69
2019-01-11T02:23:37.324Z,96865.75
2019-01-11T02:26:04.380Z,96866.09
2019-01-11T02:28:31.463Z,96864.44
2019-01-11T02:30:58.438Z,96866.87
2019-01-11T02:33:25.478Z,96871.16
2019-01-11T02:35:52.512Z,96870.81
2019-01-11T02:38:19.549Z,96869.44
2019-01-11T02:40:46.577Z,96863.15
2019-01-11T02:43:13.685Z,96861.14
2019-01-11T02:45:40.697Z,96862.12
2019-01-11T02:48:07.746Z,96860.80
2019-01-11T02:50:34.768Z,96857.86
2019-01-11T02:53:01.803Z,96862.29
2019-01-11T02:55:28.830Z,96858.00
2019-01-11T02:57:55.868Z,96852.39
2019-01-11T03:00:22.990Z,96851.22
2019-01-11T03:02:50.024Z,96840.34
2019-01-11T03:05:17.478Z,96855.16
2019-01-11T03:07:44.784Z,96851.02
2019-01-11T03:10:14.507Z,96853.64
2019-01-11T03:12:41.537Z,96848.81
2019-01-11T03:15:08.811Z,96845.48
2019-01-11T03:17:35.838Z,96846.46
2019-01-11T03:20:03.617Z,96847.09
2019-01-11T03:22:30.661Z,96852.67
2019-01-11T03:24:57.699Z,96857.88
2019-01-11T03:27:24.702Z,96855.86
2019-01-11T03:29:51.755Z,96853.17
2019-01-11T03:32:18.791Z,96858.92
2019-01-11T03:35:17.332Z,96855.11
2019-01-11T03:37:48.345Z,96857.94
2019-01-11T03:40:16.775Z,96852.59
2019-01-11T03:42:43.821Z,96853.62
2019-01-11T03:45:11.817Z,96853.98
2019-01-11T03:47:38.919Z,96846.89
2019-01-11T03:50:06.838Z,96847.38
2019-01-11T03:52:33.879Z,96849.75
2019-01-11T03:55:00.911Z,96852.30
2019-01-11T03:57:27.969Z,96855.91
2019-01-11T03:59:55.013Z,96845.45
2019-01-11T04:02:22.087Z,96848.61
2019-01-11T04:04:49.116Z,96848.75
2019-01-11T04:07:16.179Z,96848.86
2019-01-11T04:09:43.195Z,96843.32
2019-01-11T04:12:10.397Z,96842.80
2019-01-11T04:14:37.416Z,96851.72
2019-01-11T04:17:04.467Z,96852.73
2019-01-11T04:19:31.601Z,96847.97
2019-01-11T04:22:19.940Z,96858.55
2019-01-11T04:25:06.100Z,96860.32
2019-01-11T04:27:33.278Z,96859.63
2019-01-11T04:30:00.318Z,96863.92
2019-01-11T04:32:27.351Z,96867.45
2019-01-11T04:34:54.417Z,96872.74
2019-01-11T04:37:21.425Z,96868.66
2019-01-11T04:39:48.450Z,96875.37
2019-01-11T04:42:15.472Z,96877.17
2019-01-11T04:44:42.498Z,96871.57
2019-01-11T04:47:09.518Z,96865.58
2019-01-11T04:49:36.678Z,96867.86
2019-01-11T04:52:03.707Z,96865.86
2019-01-11T04:54:30.752Z,96865.86
2019-01-11T04:56:57.774Z,96866.83
2019-01-11T04:59:24.805Z,96861.16
2019-01-11T05:01:51.849Z,96859.70
2019-01-11T05:04:18.892Z,96865.09
2019-01-11T05:06:45.981Z,96863.02
2019-01-11T05:09:13.040Z,96862.75
2019-01-11T05:11:40.090Z,96863.30
2019-01-11T05:14:07.116Z,96865.61
2019-01-11T05:16:39.424Z,96869.63
2019-01-11T05:19:03.069Z,96866.86
2019-01-11T05:21:30.114Z,96871.02
2019-01-11T05:23:57.136Z,96875.16
2019-01-11T05:26:24.156Z,96881.67
2019-01-11T05:28:51.279Z,96885.30
2019-01-11T05:31:18.343Z,96897.89
2019-01-11T05:33:45.454Z,96906.28
2019-01-11T05:36:12.552Z,96904.97
2019-01-11T05:38:39.589Z,96908.02
2019-01-11T05:41:06.637Z,96908.75
2019-01-11T05:43:33.692Z,96908.96
2019-01-11T05:46:00.739Z,96912.64
2019-01-11T05:48:27.779Z,96909.25
2019-01-11T05:50:54.822Z,96914.27
2019-01-11T05:53:21.856Z,96917.73
2019-01-11T05:55:50.135Z,96907.42
2019-01-11T05:58:35.103Z,96910.12
2019-01-11T06:01:02.245Z,96906.24
2019-01-11T06:03:29.305Z,96905.00
2019-01-11T06:05:56.388Z,96905.48
2019-01-11T06:08:24.729Z,96909.56
2019-01-11T06:10:51.757Z,96908.05
2019-01-11T06:13:18.812Z,96913.16
2019-01-11T06:15:45.852Z,96903.54
2019-01-11T06:18:13.321Z,96903.72
2019-01-11T06:20:40.341Z,96907.66
2019-01-11T06:23:07.367Z,96914.09
2019-01-11T06:25:34.391Z,96916.24
2019-01-11T06:28:01.415Z,96905.58
2019-01-11T06:30:28.464Z,96913.82
2019-01-11T06:32:55.487Z,96908.08
2019-01-11T06:35:22.561Z,96905.09
2019-01-11T06:37:49.701Z,96913.13
2019-01-11T06:40:16.754Z,96917.08
2019-01-11T06:42:43.789Z,96914.93
2019-01-11T06:45:10.959Z,96914.89
2019-01-11T06:47:39.151Z,96914.89
2019-01-11T06:50:09.031Z,96918.17
2019-01-11T06:52:36.078Z,96911.94
2019-01-11T06:55:03.707Z,96912.16
2019-01-11T06:57:30.735Z,96910.21
2019-01-11T06:59:57.783Z,96914.72
2019-01-11T07:02:24.818Z,96910.28
2019-01-11T07:04:51.870Z,96917.41
2019-01-11T07:07:18.910Z,96919.48
2019-01-11T07:09:47.878Z,96916.09
2019-01-11T07:12:15.218Z,96917.59
2019-01-11T07:14:42.467Z,96914.93
2019-01-11T07:17:09.515Z,96914.95
2019-01-11T07:19:36.539Z,96907.95
2019-01-11T07:22:03.676Z,96912.11
2019-01-11T07:24:30.726Z,96908.44
2019-01-11T07:26:57.804Z,96905.73
2019-01-11T07:29:24.875Z,96906.31
2019-01-11T07:31:53.034Z,96898.89
2019-01-11T07:34:20.063Z,96892.60
2019-01-11T07:36:52.280Z,96906.80
2019-01-11T07:39:26.040Z,96908.50
2019-01-11T07:41:53.067Z,96915.48
2019-01-11T07:44:20.110Z,96913.48
2019-01-11T07:46:47.136Z,96923.24
2019-01-11T07:49:14.277Z,96927.73
2019-01-11T07:51:41.420Z,96930.47
2019-01-11T07:54:08.474Z,96919.01
2019-01-11T07:56:35.530Z,96915.84
2019-01-11T07:59:02.579Z,96926.66
2019-01-11T08:01:34.393Z,96922.30
2019-01-11T08:04:01.438Z,96918.11
2019-01-11T08:06:28.507Z,96918.11
2019-01-11T08:08:55.567Z,96923.89
2019-01-11T08:11:22.727Z,96917.55
2019-01-11T08:13:49.773Z,96920.06
2019-01-11T08:16:16.826Z,96919.48
2019-01-11T08:18:43.854Z,96924.89
2019-01-11T08:21:10.903Z,96925.99
2019-01-11T08:23:37.964Z,96920.60
2019-01-11T08:26:04.999Z,96921.37
2019-01-11T08:28:33.459Z,96931.09
2019-01-11T08:31:00.498Z,96916.38
2019-01-11T08:33:27.627Z,96918.11
2019-01-11T08:35:54.667Z,96926.77
2019-01-11T08:38:21.696Z,96924.76
2019-01-11T08:40:48.857Z,96930.71
2019-01-11T08:43:15.901Z,96933.45
2019-01-11T08:45:42.931Z,96924.27
2019-01-11T08:48:09.964Z,96935.51
2019-01-11T08:50:37.845Z,96921.94
2019-01-11T08:53:04.878Z,96921.14
2019-01-11T08:55:31.926Z,96909.76
2019-01-11T08:57:58.978Z,96918.88
2019-01-11T09:00:26.009Z,96916.04
2019-01-11T09:02:53.053Z,96919.84
2019-01-11T09:05:20.124Z,96919.88
2019-01-11T09:07:47.167Z,96919.61
2019-01-11T09:10:15.305Z,96925.95
2019-01-11T09:12:42.375Z,96927.00
2019-01-11T09:15:09.536Z,96927.62
2019-01-11T09:17:47.457Z,96934.34
2019-01-11T09:20:14.522Z,96931.73
2019-01-11T09:22:42.402Z,96926.72
2019-01-11T09:25:09.469Z,96930.02
2019-01-11T09:27:36.514Z,96927.54
2019-01-11T09:30:04.235Z,96923.73
2019-01-11T09:32:31.290Z,96926.55
2019-01-11T09:34:58.339Z,96924.07
2019-01-11T09:37:25.392Z,96930.67
2019-01-11T09:39:52.458Z,96928.67
2019-01-11T09:42:19.615Z,96924.78
2019-01-11T09:44:46.664Z,96924.92
2019-01-11T09:47:13.746Z,96932.98
2019-01-11T09:49:40.792Z,96929.36
2019-01-11T09:52:07.893Z,96927.85
2019-01-11T09:54:34.940Z,96928.03
2019-01-11T09:57:01.981Z,96927.90
2019-01-11T09:59:34.894Z,96925.16
2019-01-11T10:02:26.203Z,96922.72
2019-01-11T10:04:53.224Z,96917.12
2019-01-11T10:07:24.327Z,96915.00
2019-01-11T10:09:51.483Z,96920.84
2019-01-11T10:12:18.524Z,96915.83
2019-01-11T10:14:45.629Z,96908.89
2019-01-11T10:17:12.702Z,96907.56
2019-01-11T10:19:39.767Z,96907.94
2019-01-11T10:22:06.834Z,96903.29
2019-01-11T10:24:33.886Z,96899.66
2019-01-11T10:27:00.931Z,96896.52
2019-01-11T10:29:27.980Z,96899.33
2019-01-11T10:31:55.065Z,96901.63
2019-01-11T10:34:22.091Z,96895.95
2019-01-11T10:36:49.131Z,96893.59
2019-01-11T10:39:16.181Z,96891.44
2019-01-11T10:41:43.282Z,96894.42
2019-01-11T10:44:10.319Z,96891.99
2019-01-11T10:46:38.073Z,96889.35
2019-01-11T10:49:05.129Z,96888.54
2019-01-11T10:51:32.204Z,96882.93
2019-01-11T10:53:59.267Z,96884.77
2019-01-11T10:56:26.339Z,96876.66
2019-01-11T10:58:53.436Z,96876.83
2019-01-11T11:01:20.493Z,96873.34
2019-01-11T11:03:47.699Z,96872.18
2019-01-11T11:06:14.910Z,96863.58
2019-01-11T11:08:42.011Z,96860.77
2019-01-11T11:11:09.097Z,96862.42
2019-01-11T11:13:36.144Z,96861.44
2019-01-11T11:16:03.242Z,96860.61
2019-01-11T11:18:30.291Z,96856.64
2019-01-11T11:20:57.357Z,96852.17
2019-01-11T11:23:24.431Z,96849.38
2019-01-11T11:25:51.490Z,96844.91
2019-01-11T11:28:18.552Z,96836.47
2019-01-11T11:30:45.605Z,96843.86
2019-01-11T11:33:12.861Z,96840.06
2019-01-11T11:35:39.909Z,96843.03
2019-01-11T11:38:06.962Z,96842.00
2019-01-11T11:40:34.172Z,96841.80
2019-01-11T11:43:01.217Z,96842.98
2019-01-11T11:45:28.285Z,96839.35
2019-01-11T11:47:55.339Z,96840.00
2019-01-11T11:50:22.390Z,96837.52
2019-01-11T11:52:49.453Z,96839.00
2019-01-11T11:55:16.524Z,96834.86
2019-01-11T11:57:43.579Z,96831.05
2019-01-11T12:00:13.446Z,96827.91
2019-01-11T12:02:40.552Z,96834.00
2019-01-11T12:05:07.642Z,96828.70
2019-01-11T12:07:34.687Z,96827.39
2019-01-11T12:10:01.823Z,96821.09
2019-01-11T12:12:28.852Z,96815.64
2019-01-11T12:14:55.899Z,96812.16
2019-01-11T12:17:22.940Z,96806.91
2019-01-11T12:19:50.012Z,96810.55
2019-01-11T12:22:17.060Z,96805.09
2019-01-11T12:24:44.128Z,96805.25
2019-01-11T12:27:11.162Z,96806.08
2019-01-11T12:29:38.236Z,96803.77
2019-01-11T12:32:05.289Z,96801.97
2019-01-11T12:34:32.341Z,96799.36
2019-01-11T12:36:59.432Z,96797.77
2019-01-11T12:39:26.453Z,96796.30
2019-01-11T12:41:53.499Z,96789.20
2019-01-11T12:44:20.572Z,96790.36
2019-01-11T12:46:47.617Z,96778.92
2019-01-11T12:49:14.679Z,96777.59
2019-01-11T12:51:41.734Z,96778.56
2019-01-11T12:54:08.780Z,96772.44
2019-01-11T12:56:35.840Z,96766.64
2019-01-11T12:59:02.898Z,96763.82
2019-01-11T13:01:29.932Z,96766.31
2019-01-11T13:03:56.983Z,96769.16
2019-01-11T13:06:24.019Z,96762.08
2019-01-11T13:08:51.032Z,96768.69
2019-01-11T13:11:18.061Z,96759.42
2019-01-11T13:13:45.107Z,96766.54
2019-01-11T13:16:12.161Z,96759.09
2019-01-11T13:18:39.228Z,96758.11
2019-01-11T13:21:06.254Z,96754.66
2019-01-11T13:23:33.331Z,96761.91
2019-01-11T13:26:00.369Z,96751.69
2019-01-11T13:28:27.437Z,96757.80
2019-01-11T13:30:54.516Z,96753.99
2019-01-11T13:33:21.567Z,96751.68
2019-01-11T13:35:48.618Z,96759.28
2019-01-11T13:38:15.710Z,96753.81
2019-01-11T13:40:42.773Z,96756.98
2019-01-11T13:43:09.807Z,96757.64
2019-01-11T13:45:37.542Z,96756.81
2019-01-11T13:48:04.720Z,96748.20
2019-01-11T13:50:38.262Z,96755.47
2019-01-11T13:53:06.773Z,96745.58
2019-01-11T13:55:33.833Z,96746.70
2019-01-11T13:58:00.858Z,96743.59
2019-01-11T14:00:27.903Z,96756.47
2019-01-11T14:02:54.953Z,96763.56
2019-01-11T14:05:22.017Z,96762.06
2019-01-11T14:07:49.064Z,96762.73
2019-01-11T14:10:16.120Z,96767.36
2019-01-11T14:12:43.180Z,96758.58
2019-01-11T14:15:10.776Z,96763.69
2019-01-11T14:17:37.905Z,96765.50
2019-01-11T14:20:05.137Z,96764.69
2019-01-11T14:22:32.250Z,96764.36
2019-01-11T14:24:59.633Z,96760.22
2019-01-11T14:27:26.692Z,96763.36
2019-01-11T14:29:53.756Z,96756.24
2019-01-11T14:32:20.802Z,96759.38
2019-01-11T14:34:47.844Z,96755.71
2019-01-11T14:37:14.903Z,96758.17
2019-01-11T14:39:41.952Z,96759.48
2019-01-11T14:42:09.017Z,96763.91
2019-01-11T14:44:36.067Z,96755.69
2019-01-11T14:47:03.136Z,96760.77
2019-01-11T14:49:30.186Z,96752.15
2019-01-11T14:51:57.251Z,96749.00
2019-01-11T14:54:24.283Z,96747.03
2019-01-11T14:56:51.356Z,96746.22
2019-01-11T14:59:18.418Z,96750.70
2019-01-11T15:01:45.487Z,96744.25
2019-01-11T15:04:12.532Z,96749.02
2019-01-11T15:06:39.611Z,96753.94
2019-01-11T15:09:07.254Z,96749.66
2019-01-11T15:11:34.312Z,96750.95
2019-01-11T15:14:01.386Z,96753.90
2019-01-11T15:16:28.442Z,96759.11
2019-01-11T15:18:55.510Z,96749.84
2019-01-11T15:21:22.594Z,96737.77
2019-01-11T15:23:49.677Z,96733.70
2019-01-11T15:26:16.773Z,96733.48
2019-01-11T15:28:43.866Z,96732.18
2019-01-11T15:31:10.996Z,96729.52
2019-01-11T15:33:38.098Z,96731.03
2019-01-11T15:36:05.149Z,96729.64
2019-01-11T15:38:32.246Z,96737.05
2019-01-11T15:41:02.111Z,96740.15
2019-01-11T15:43:29.197Z,96739.09
2019-01-11T15:46:04.343Z,96743.25
2019-01-11T15:48:49.803Z,96738.60
2019-01-11T15:51:23.121Z,96747.52
2019-01-11T15:53:50.150Z,96733.92
2019-01-11T15:56:26.411Z,96731.91
2019-01-11T15:58:53.532Z,96734.00
2019-01-11T16:01:20.888Z,96740.09
2019-01-11T16:03:47.966Z,96735.31
2019-01-11T16:06:24.241Z,96738.25
2019-01-11T16:09:30.432Z,96727.81
2019-01-11T16:12:00.141Z,96730.63
2019-01-11T16:14:41.951Z,96726.15
2019-01-11T16:17:12.614Z,96721.16
2019-01-11T16:19:39.722Z,96718.52
2019-01-11T16:22:06.826Z,96719.31
2019-01-11T16:24:33.921Z,96719.81
2019-01-11T16:27:01.045Z,96717.51
2019-01-11T16:29:28.164Z,96723.64
2019-01-11T16:31:55.295Z,96729.74
2019-01-11T16:34:22.404Z,96728.76
2019-01-11T16:36:49.483Z,96711.92
2019-01-11T16:39:16.636Z,96718.67
2019-01-11T16:41:43.730Z,96715.54
2019-01-11T16:44:10.858Z,96717.53
2019-01-11T16:46:37.965Z,96714.87
2019-01-11T16:49:04.999Z,96714.19
2019-01-11T16:51:32.107Z,96716.83
2019-01-11T16:53:59.168Z,96719.16
2019-01-11T16:56:26.273Z,96721.80
2019-01-11T16:58:53.345Z,96717.17
2019-01-11T17:01:20.443Z,96715.85
2019-01-11T17:03:47.552Z,96721.80
2019-01-11T17:06:14.631Z,96726.92
2019-01-11T17:08:41.686Z,96719.50
2019-01-11T17:11:08.762Z,96720.53
2019-01-11T17:13:40.555Z,96715.98
2019-01-11T17:16:04.990Z,96726.28
2019-01-11T17:18:32.084Z,96719.86
2019-01-11T17:20:59.184Z,96718.36
2019-01-11T17:23:26.556Z,96722.30
2019-01-11T17:25:53.696Z,96725.92
2019-01-11T17:28:20.836Z,96726.91
2019-01-11T17:30:47.970Z,96714.86
2019-01-11T17:33:15.086Z,96720.45
2019-01-11T17:35:42.216Z,96712.70
2019-01-11T17:38:09.287Z,96713.50
2019-01-11T17:40:36.455Z,96698.78
2019-01-11T17:43:03.606Z,96706.05
2019-01-11T17:45:30.715Z,96714.27
2019-01-11T17:47:57.818Z,96708.32
2019-01-11T17:50:26.753Z,96708.16
2019-01-11T17:52:59.863Z,96701.56
2019-01-11T17:55:22.885Z,96700.73
2019-01-11T17:57:50.065Z,96705.69
2019-01-11T18:00:17.594Z,96701.72
2019-01-11T18:02:44.760Z,96692.30
2019-01-11T18:05:12.888Z,96683.05
2019-01-11T18:07:40.038Z,96688.81
2019-01-11T18:10:08.581Z,96682.88
2019-01-11T18:12:35.735Z,96686.84
2019-01-11T18:15:04.520Z,96687.81
2019-01-11T18:17:32.253Z,96680.08
2019-01-11T18:19:59.387Z,96680.08
2019-01-11T18:22:26.514Z,96678.77
2019-01-11T18:24:53.712Z,96669.84
2019-01-11T18:27:20.856Z,96661.09
2019-01-11T18:29:48.033Z,96661.59
2019-01-11T18:32:16.539Z,96661.59
2019-01-11T18:34:44.672Z,96658.95
2019-01-11T18:37:12.129Z,96667.05
2019-01-11T18:39:39.418Z,96670.32
2019-01-11T18:42:06.649Z,96663.73
2019-01-11T18:44:36.547Z,96658.45
2019-01-11T18:47:06.468Z,96663.58
2019-01-11T18:49:33.905Z,96663.58
2019-01-11T18:52:02.740Z,96660.78
2019-01-11T18:54:30.208Z,96662.93
2019-01-11T18:56:57.785Z,96671.64
2019-01-11T18:59:25.445Z,96667.86
2019-01-11T19:01:52.618Z,96661.27
2019-01-11T19:04:20.106Z,96657.80
2019-01-11T19:06:47.682Z,96662.74
2019-01-11T19:09:15.002Z,96668.70
2019-01-11T19:11:42.770Z,96655.81
2019-01-11T19:14:10.452Z,96656.00
2019-01-11T19:16:38.342Z,96651.22
2019-01-11T19:19:06.006Z,96656.16
2019-01-11T19:21:33.767Z,96639.97
2019-01-11T19:24:02.978Z,96639.97
2019-01-11T19:26:30.710Z,96650.88
2019-01-11T19:28:58.570Z,96650.88
2019-01-11T19:31:26.498Z,96651.55
2019-01-11T19:33:55.435Z,96651.55
2019-01-11T19:36:23.411Z,96651.22
2019-01-11T19:38:51.100Z,96660.11
2019-01-11T19:41:20.051Z,96649.73
2019-01-11T19:43:48.027Z,96651.22
2019-01-11T19:46:16.436Z,96661.09
2019-01-11T19:48:44.071Z,96661.09
2019-01-11T19:51:11.520Z,96665.56
2019-01-11T19:53:39.379Z,96668.53
2019-01-11T19:56:07.332Z,96668.53
2019-01-11T19:58:35.048Z,96668.05
2019-01-11T20:01:03.381Z,96657.64
2019-01-11T20:03:31.104Z,96664.73
2019-01-11T20:05:58.810Z,96661.94
2019-01-11T20:08:28.159Z,96653.69
2019-01-11T20:10:56.853Z,96652.86
2019-01-11T20:13:25.511Z,96652.86
2019-01-11T20:15:53.570Z,96646.91
2019-01-11T20:18:22.471Z,96644.27
2019-01-11T20:20:51.030Z,96640.66
2019-01-11T20:23:19.334Z,96639.19
2019-01-11T20:25:47.637Z,96638.17
2019-01-11T20:28:17.017Z,96629.43
2019-01-11T20:30:45.250Z,96634.05
2019-01-11T20:33:14.036Z,96644.77
2019-01-11T20:35:42.532Z,96631.59
2019-01-11T20:38:09.881Z,96631.59
2019-01-11T20:40:39.115Z,96647.58
2019-01-11T20:43:06.997Z,96637.67
2019-01-11T20:45:34.478Z,96637.67
2019-01-11T20:48:02.301Z,96638.17
2019-01-11T20:50:29.757Z,96645.44
2019-01-11T20:52:59.379Z,96644.12
2019-01-11T20:55:27.205Z,96646.59
2019-01-11T20:57:55.190Z,96635.06
2019-01-11T21:00:27.058Z,96644.30
2019-01-11T21:02:54.729Z,96639.69
2019-01-11T21:05:22.089Z,96636.38
2019-01-11T21:07:49.573Z,96626.47
2019-01-11T21:10:17.353Z,96633.41
2019-01-11T21:12:45.605Z,96629.27
2019-01-11T21:15:13.633Z,96634.05
2019-01-11T21:17:41.085Z,96636.05
2019-01-11T21:20:10.405Z,96640.98
2019-01-11T21:22:37.593Z,96637.36
2019-01-11T21:25:05.697Z,96626.66
2019-01-11T21:27:33.800Z,96626.66
2019-01-11T21:30:01.989Z,96627.81
2019-01-11T21:32:29.212Z,96622.53
2019-01-11T21:34:57.264Z,96621.89
2019-01-11T21:37:24.567Z,96622.71
2019-01-11T21:39:51.833Z,96625.19
2019-01-11T21:42:19.413Z,96628.33
2019-01-11T21:44:46.770Z,96622.89
2019-01-11T21:47:14.610Z,96624.20
2019-01-11T21:49:42.343Z,96618.77
2019-01-11T21:52:09.932Z,96616.31
2019-01-11T21:54:37.223Z,96611.34
2019-01-11T21:57:07.264Z,96611.34
2019-01-11T21:59:34.463Z,96609.55
2019-01-11T22:02:03.288Z,96616.98
2019-01-11T22:04:30.692Z,96626.69
2019-01-11T22:06:57.888Z,96617.30
2019-01-11T22:09:25.174Z,96624.41
2019-01-11T22:11:52.345Z,96624.41
2019-01-11T22:14:19.805Z,96611.52
2019-01-11T22:16:46.952Z,96611.52
2019-01-11T22:19:14.180Z,96617.98
2019-01-11T22:21:41.325Z,96614.36
2019-01-11T22:24:08.429Z,96619.14
2019-01-11T22:26:35.602Z,96616.34
2019-01-11T22:29:02.782Z,96615.36
2019-01-11T22:31:29.885Z,96611.73
2019-01-11T22:33:56.997Z,96615.86
2019-01-11T22:36:24.155Z,96618.80
2019-01-11T22:38:51.284Z,96612.39
2019-01-11T22:41:18.389Z,96609.27
2019-01-11T22:43:45.497Z,96610.06
2019-01-11T22:46:12.579Z,96605.30
2019-01-11T22:48:39.687Z,96609.92
2019-01-11T22:51:06.814Z,96609.92
2019-01-11T22:53:33.934Z,96624.59
2019-01-11T22:56:01.038Z,96624.09
2019-01-11T22:58:28.117Z,96623.11
2019-01-11T23:01:28.891Z,96623.63
2019-01-11T23:03:55.987Z,96622.80
2019-01-11T23:06:50.943Z,96626.59
2019-01-11T23:09:20.302Z,96623.95
2019-01-11T23:12:27.674Z,96623.95
2019-01-11T23:14:54.797Z,96624.28
2019-01-11T23:17:39.379Z,96624.45
2019-01-11T23:20:09.651Z,96630.08
2019-01-11T23:22:36.721Z,96631.23
2019-01-11T23:25:04.083Z,96624.63
2019-01-11T23:27:31.134Z,96635.83
2019-01-11T23:29:58.207Z,96636.50
2019-01-11T23:32:25.288Z,96637.81
2019-01-11T23:34:52.389Z,96642.11
2019-01-11T23:37:19.440Z,96643.43
2019-01-11T23:39:46.529Z,96642.11
2019-01-11T23:42:13.568Z,96639.31
2019-01-11T23:44:40.688Z,96635.52
2019-01-11T23:47:07.766Z,96637.84
2019-01-11T23:49:34.834Z,96637.84
2019-01-11T23:52:01.900Z,96651.54
2019-01-11T23:54:28.934Z,96653.69
2019-01-11T23:56:55.995Z,96651.05
2019-01-11T23:59:23.051Z,96657.16
